Time;durP1;ratioP1;P1;durP2;ratioP2;P2;SDS_P1;SDS_P2;PMS_P1;PMS_P2;Temp;Humidity;BMP_temperature;BMP_pressure;BME280_temperature;BME280_humidity;BME280_pressure;Samples;Min_cycle;Max_cycle;Signal;HPM_P1;HPM_P2
2024/02/22 00:00:15;;;;;;;1.75;1.08;;;10.60;99.90;;;;;;2083968;28;20033;-67
2024/02/22 00:01:18;;;;;;;1.00;0.82;;;10.60;99.90;;;;;;2084651;28;20117;-67
2024/02/22 00:02:19;;;;;;;1.10;0.95;;;10.60;99.90;;;;;;2085946;28;20240;-70
2024/02/22 00:03:20;;;;;;;2.13;0.90;;;10.60;99.90;;;;;;2085482;28;20108;-67
2024/02/22 00:04:21;;;;;;;1.25;1.05;;;10.60;99.90;;;;;;2084035;28;20033;-67
2024/02/22 00:05:22;;;;;;;0.90;0.90;;;10.60;99.90;;;;;;2084465;28;20033;-67
2024/02/22 00:06:22;;;;;;;0.88;0.77;;;10.60;99.90;;;;;;2083092;28;20018;-68
2024/02/22 00:07:23;;;;;;;2.20;0.70;;;10.60;99.90;;;;;;2087167;28;20077;-67
2024/02/22 00:08:24;;;;;;;1.08;0.85;;;10.60;99.90;;;;;;2082832;28;20021;-68
2024/02/22 00:09:24;;;;;;;1.60;0.70;;;10.60;99.90;;;;;;2085927;28;20092;-67
2024/02/22 00:10:29;;;;;;;1.00;0.90;;;10.60;99.90;;;;;;2084920;28;20040;-67
2024/02/22 00:11:29;;;;;;;0.90;0.85;;;10.60;99.90;;;;;;2084293;28;20036;-67
2024/02/22 00:12:37;;;;;;;1.95;0.90;;;10.60;99.90;;;;;;2083791;28;20052;-67
2024/02/22 00:13:37;;;;;;;1.02;0.82;;;10.60;99.90;;;;;;2084795;28;20466;-68
2024/02/22 00:14:39;;;;;;;1.38;0.75;;;10.60;99.90;;;;;;2085323;28;20472;-70
2024/02/22 00:15:41;;;;;;;2.38;0.90;;;10.60;99.90;;;;;;2083341;28;20048;-67
2024/02/22 00:16:41;;;;;;;0.70;0.70;;;10.60;99.90;;;;;;2086254;28;20026;-70
2024/02/22 00:17:42;;;;;;;0.73;0.73;;;10.60;99.90;;;;;;2085347;28;20064;-68
2024/02/22 00:18:43;;;;;;;0.93;0.77;;;10.60;99.90;;;;;;2085566;28;20028;-68
2024/02/22 00:19:43;;;;;;;2.03;1.00;;;10.60;99.90;;;;;;2083952;28;20056;-67
2024/02/22 00:20:44;;;;;;;1.70;1.00;;;10.60;99.90;;;;;;2084790;28;20042;-69
2024/02/22 00:21:44;;;;;;;0.73;0.70;;;10.60;99.90;;;;;;2085826;28;20410;-69
2024/02/22 00:22:45;;;;;;;0.80;0.80;;;10.60;99.90;;;;;;2085549;28;20029;-68
2024/02/22 00:23:46;;;;;;;2.60;0.90;;;10.60;99.90;;;;;;2082601;28;20485;-68
2024/02/22 00:24:46;;;;;;;0.70;0.70;;;10.60;99.90;;;;;;2082829;28;20055;-68
2024/02/22 00:25:47;;;;;;;0.70;0.70;;;10.70;99.90;;;;;;2086418;28;20029;-68
2024/02/22 00:26:47;;;;;;;1.20;1.00;;;10.60;99.90;;;;;;2084773;28;20589;-68
2024/02/22 00:27:48;;;;;;;1.17;0.85;;;10.60;99.90;;;;;;2084066;28;20025;-67
2024/02/22 00:28:48;;;;;;;3.78;0.80;;;10.70;99.90;;;;;;2084507;28;20067;-68
2024/02/22 00:29:49;;;;;;;1.02;0.80;;;10.60;99.90;;;;;;2083831;28;20040;-68
2024/02/22 00:30:49;;;;;;;0.55;0.55;;;10.70;99.90;;;;;;2085941;28;20132;-67
2024/02/22 00:31:50;;;;;;;0.75;0.75;;;10.60;99.90;;;;;;2084088;28;20535;-68
2024/02/22 00:32:51;;;;;;;0.70;0.70;;;10.70;99.90;;;;;;2084614;28;20036;-67
2024/02/22 00:33:52;;;;;;;1.45;0.70;;;10.70;99.90;;;;;;2085245;28;20025;-67
2024/02/22 00:34:52;;;;;;;1.50;0.80;;;10.70;99.90;;;;;;2083139;28;20030;-69
2024/02/22 00:35:53;;;;;;;0.85;0.75;;;10.70;99.90;;;;;;2084406;28;20076;-69
2024/02/22 00:36:53;;;;;;;0.77;0.68;;;10.70;99.90;;;;;;2088120;28;20647;-67
2024/02/22 00:37:54;;;;;;;0.70;0.60;;;10.70;99.90;;;;;;2086541;28;20025;-67
2024/02/22 00:38:54;;;;;;;2.33;1.02;;;10.70;99.90;;;;;;2085190;28;20063;-67
2024/02/22 00:39:55;;;;;;;0.70;0.70;;;10.70;99.90;;;;;;2082517;28;20120;-67
2024/02/22 00:40:55;;;;;;;0.70;0.70;;;10.70;99.90;;;;;;2084698;28;20029;-68
2024/02/22 00:41:56;;;;;;;1.95;0.80;;;10.70;99.90;;;;;;2084289;28;20110;-68
2024/02/22 00:42:56;;;;;;;1.70;0.70;;;10.70;99.90;;;;;;2085017;28;20036;-68
2024/02/22 00:43:57;;;;;;;1.10;0.90;;;10.70;99.90;;;;;;2083210;28;20544;-68
2024/02/22 00:44:57;;;;;;;0.90;0.70;;;10.70;99.90;;;;;;2084750;28;20501;-68
2024/02/22 00:45:58;;;;;;;0.90;0.60;;;10.70;99.90;;;;;;2084566;28;20422;-68
2024/02/22 00:46:58;;;;;;;1.15;0.70;;;10.80;99.90;;;;;;2085224;28;20497;-68
2024/02/22 00:47:59;;;;;;;1.40;0.80;;;10.70;99.90;;;;;;2084663;28;20052;-67
2024/02/22 00:49:00;;;;;;;0.65;0.65;;;10.70;99.90;;;;;;2083707;28;20045;-67
2024/02/22 00:50:01;;;;;;;0.68;0.68;;;10.80;99.90;;;;;;2082025;28;20076;-68
2024/02/22 00:51:01;;;;;;;0.98;0.90;;;10.80;99.90;;;;;;2084651;28;20481;-68
2024/02/22 00:52:02;;;;;;;0.68;0.52;;;10.70;99.90;;;;;;2083873;28;20032;-68
2024/02/22 00:53:03;;;;;;;0.60;0.60;;;10.70;99.90;;;;;;2084060;28;20091;-68
2024/02/22 00:54:04;;;;;;;2.28;0.88;;;10.80;99.90;;;;;;2083083;28;20070;-67
2024/02/22 00:55:05;;;;;;;1.75;0.70;;;10.80;99.90;;;;;;2085287;28;20029;-68
2024/02/22 00:56:06;;;;;;;0.70;0.68;;;10.80;99.90;;;;;;2083973;28;20126;-68
2024/02/22 00:57:06;;;;;;;1.13;0.90;;;10.80;99.90;;;;;;2083096;28;20060;-67
2024/02/22 00:58:07;;;;;;;0.77;0.70;;;10.80;99.90;;;;;;2084195;28;20029;-67
2024/02/22 00:59:07;;;;;;;1.95;0.70;;;10.80;99.90;;;;;;2085289;28;20471;-68
2024/02/22 01:00:09;;;;;;;0.80;0.70;;;10.80;99.90;;;;;;2083383;28;20036;-68
2024/02/22 01:01:10;;;;;;;3.15;1.00;;;10.80;99.90;;;;;;2086028;28;20049;-69
2024/02/22 01:02:11;;;;;;;0.80;0.80;;;10.80;99.90;;;;;;2082998;28;20707;-67
2024/02/22 01:03:11;;;;;;;1.05;0.77;;;10.80;99.90;;;;;;2085810;28;20541;-66
2024/02/22 01:04:15;;;;;;;1.35;0.73;;;10.90;99.90;;;;;;2083800;28;20026;-68
2024/02/22 01:05:17;;;;;;;2.20;0.90;;;10.80;99.90;;;;;;2085005;28;20013;-68
2024/02/22 01:06:17;;;;;;;0.77;0.70;;;10.80;99.90;;;;;;2084236;28;20021;-68
2024/02/22 01:07:18;;;;;;;0.90;0.90;;;10.90;99.90;;;;;;2086218;28;20049;-68
2024/02/22 01:08:19;;;;;;;0.70;0.60;;;10.80;99.90;;;;;;2085075;28;20437;-68
2024/02/22 01:09:20;;;;;;;1.10;0.80;;;10.80;99.90;;;;;;2083956;28;20087;-68
2024/02/22 01:10:21;;;;;;;0.73;0.73;;;10.80;99.90;;;;;;2084695;28;20091;-68
2024/02/22 01:11:22;;;;;;;1.15;0.70;;;10.80;99.90;;;;;;2082673;28;20053;-68
2024/02/22 01:12:22;;;;;;;1.05;0.70;;;10.90;99.90;;;;;;2083954;28;20025;-67
2024/02/22 01:13:23;;;;;;;0.68;0.63;;;10.90;99.90;;;;;;2084622;28;20021;-68
2024/02/22 01:14:23;;;;;;;1.27;0.60;;;10.80;99.90;;;;;;2084492;28;20589;-67
2024/02/22 01:15:24;;;;;;;1.85;0.60;;;10.80;99.90;;;;;;2084649;28;20410;-68
2024/02/22 01:16:24;;;;;;;0.45;0.45;;;10.80;99.90;;;;;;2083545;28;20416;-69
2024/02/22 01:17:25;;;;;;;0.70;0.70;;;10.90;99.90;;;;;;2085632;28;20087;-68
2024/02/22 01:18:25;;;;;;;1.20;0.60;;;10.90;99.90;;;;;;2084018;28;20082;-68
2024/02/22 01:19:26;;;;;;;0.70;0.70;;;10.80;99.90;;;;;;2086446;28;20079;-68
2024/02/22 01:20:26;;;;;;;2.70;0.60;;;10.90;99.90;;;;;;2084414;28;20876;-68
2024/02/22 01:21:27;;;;;;;0.98;0.80;;;10.90;99.90;;;;;;2088414;28;20036;-68
2024/02/22 01:22:28;;;;;;;0.70;0.70;;;10.90;99.90;;;;;;2089386;28;20110;-69
2024/02/22 01:23:28;;;;;;;0.73;0.63;;;10.80;99.90;;;;;;2087626;28;20414;-69
2024/02/22 01:24:29;;;;;;;0.63;0.63;;;10.80;99.90;;;;;;2089418;28;20025;-69
2024/02/22 01:25:30;;;;;;;0.77;0.77;;;10.80;99.90;;;;;;2087552;28;20405;-68
2024/02/22 01:26:30;;;;;;;5.75;4.75;;;10.80;99.90;;;;;;2085379;28;20028;-68
2024/02/22 01:27:31;;;;;;;2.50;2.30;;;10.80;99.90;;;;;;2087836;28;20057;-69
2024/02/22 01:28:32;;;;;;;1.10;1.00;;;10.80;99.90;;;;;;2085889;28;20027;-69
2024/02/22 01:29:32;;;;;;;1.23;0.73;;;10.90;99.90;;;;;;2085955;28;20021;-69
2024/02/22 01:30:33;;;;;;;1.02;0.63;;;10.80;99.90;;;;;;2086765;28;20116;-68
2024/02/22 01:31:33;;;;;;;0.88;0.63;;;10.80;99.90;;;;;;2084039;28;20579;-68
2024/02/22 01:32:34;;;;;;;0.60;0.60;;;10.90;99.90;;;;;;2084473;28;20013;-69
2024/02/22 01:33:35;;;;;;;0.95;0.57;;;10.80;99.90;;;;;;2085595;28;20103;-67
2024/02/22 01:34:36;;;;;;;2.47;0.82;;;10.90;99.90;;;;;;2084135;28;20079;-68
2024/02/22 01:35:37;;;;;;;0.60;0.60;;;10.90;99.90;;;;;;2083070;28;20075;-68
2024/02/22 01:36:37;;;;;;;1.08;0.70;;;10.90;99.90;;;;;;2086299;28;20239;-69
2024/02/22 01:37:38;;;;;;;0.60;0.60;;;10.90;99.90;;;;;;2084614;28;20530;-69
2024/02/22 01:38:38;;;;;;;4.35;1.00;;;10.90;99.90;;;;;;2086322;28;20437;-69
2024/02/22 01:39:39;;;;;;;0.60;0.60;;;10.90;99.90;;;;;;2086211;28;20029;-68
2024/02/22 01:40:39;;;;;;;0.60;0.60;;;10.90;99.90;;;;;;2084222;28;20119;-69
2024/02/22 01:41:40;;;;;;;0.50;0.45;;;10.90;99.90;;;;;;2085321;28;20029;-68
2024/02/22 01:42:41;;;;;;;0.60;0.60;;;10.90;99.90;;;;;;2087782;28;20412;-68
2024/02/22 01:43:42;;;;;;;0.88;0.60;;;10.90;99.90;;;;;;2087564;28;20045;-68
2024/02/22 01:44:42;;;;;;;0.50;0.50;;;10.90;99.90;;;;;;2089325;28;20032;-68
2024/02/22 01:45:43;;;;;;;0.57;0.57;;;10.90;99.90;;;;;;2088639;28;20070;-68
2024/02/22 01:46:44;;;;;;;1.52;0.60;;;10.90;99.90;;;;;;2086875;28;20104;-68
2024/02/22 01:47:44;;;;;;;0.50;0.50;;;10.90;99.90;;;;;;2085472;28;20021;-68
2024/02/22 01:48:46;;;;;;;1.40;0.50;;;10.90;99.90;;;;;;2087123;28;20064;-68
2024/02/22 01:49:48;;;;;;;0.60;0.60;;;10.90;99.90;;;;;;2084973;28;20108;-69
2024/02/22 01:50:52;;;;;;;0.60;0.60;;;10.90;99.90;;;;;;2087547;28;20025;-69
2024/02/22 01:51:59;;;;;;;1.25;0.60;;;10.90;99.90;;;;;;2086158;28;20029;-69
2024/02/22 01:53:00;;;;;;;1.45;0.80;;;10.90;99.90;;;;;;2087046;28;20104;-68
2024/02/22 01:54:02;;;;;;;0.68;0.68;;;10.90;99.90;;;;;;2086341;28;20488;-68
2024/02/22 01:55:06;;;;;;;0.73;0.68;;;10.90;99.90;;;;;;2084578;28;20044;-68
2024/02/22 01:56:08;;;;;;;0.90;0.63;;;11.00;99.90;;;;;;2084561;28;20045;-69
2024/02/22 01:57:09;;;;;;;1.88;0.65;;;10.90;99.90;;;;;;2084960;28;20037;-68
2024/02/22 01:58:10;;;;;;;0.60;0.60;;;11.00;99.90;;;;;;2085648;28;20029;-68
2024/02/22 01:59:10;;;;;;;1.58;0.70;;;11.00;99.90;;;;;;2084844;28;20037;-68
2024/02/22 02:00:17;;;;;;;0.75;0.65;;;10.90;99.90;;;;;;2086114;28;20056;-68
2024/02/22 02:01:24;;;;;;;0.80;0.70;;;11.00;99.90;;;;;;2086581;28;20104;-68
2024/02/22 02:02:24;;;;;;;0.98;0.90;;;11.00;99.90;;;;;;2085539;28;20045;-68
2024/02/22 02:03:26;;;;;;;1.40;0.63;;;11.00;99.90;;;;;;2086767;28;20037;-68
2024/02/22 02:04:28;;;;;;;0.77;0.55;;;11.00;99.90;;;;;;2085297;28;20100;-68
2024/02/22 02:05:29;;;;;;;0.60;0.60;;;11.00;99.90;;;;;;2083753;28;20105;-68
2024/02/22 02:06:29;;;;;;;1.05;0.73;;;11.00;99.90;;;;;;2085898;28;20525;-68
2024/02/22 02:07:30;;;;;;;0.90;0.85;;;11.00;99.90;;;;;;2085237;28;20032;-68
2024/02/22 02:08:30;;;;;;;1.95;0.80;;;11.00;99.90;;;;;;2084747;28;20401;-68
2024/02/22 02:09:31;;;;;;;1.23;0.68;;;11.10;99.90;;;;;;2087670;28;20108;-68
2024/02/22 02:10:32;;;;;;;1.98;0.85;;;11.00;99.90;;;;;;2085468;28;20022;-69
2024/02/22 02:11:32;;;;;;;1.00;0.77;;;11.10;99.90;;;;;;2084563;28;20021;-70
2024/02/22 02:12:33;;;;;;;3.03;0.60;;;11.10;99.90;;;;;;2084550;28;20018;-68
2024/02/22 02:13:33;;;;;;;1.00;0.70;;;11.10;99.90;;;;;;2087101;28;20022;-68
2024/02/22 02:14:34;;;;;;;0.90;0.52;;;11.10;99.90;;;;;;2084989;28;20025;-69
2024/02/22 02:15:34;;;;;;;2.50;0.73;;;11.10;99.90;;;;;;2085650;28;20040;-68
2024/02/22 02:16:35;;;;;;;1.27;0.82;;;11.10;99.90;;;;;;2084994;28;20048;-68
2024/02/22 02:17:35;;;;;;;0.52;0.50;;;11.10;99.90;;;;;;2079790;28;20030;-69
2024/02/22 02:18:38;;;;;;;1.90;0.90;;;11.10;99.90;;;;;;2087062;28;20029;-68
2024/02/22 02:19:39;;;;;;;1.83;0.52;;;11.10;99.90;;;;;;2084967;28;20583;-68
2024/02/22 02:21:01;;;;;;;0.90;0.73;;;11.10;99.90;;;;;;2085573;28;20547;-69
2024/02/22 02:22:18;;;;;;;0.85;0.85;;;11.10;99.90;;;;;;2084641;28;20108;-68
2024/02/22 02:23:57;;;;;;;1.08;0.80;;;11.10;99.90;;;;;;2085739;28;20037;-68
2024/02/22 02:25:03;;;;;;;0.90;0.70;;;11.10;99.90;;;;;;2084259;28;20148;-69
2024/02/22 02:26:05;;;;;;;0.60;0.60;;;11.10;99.90;;;;;;2084794;28;20056;-69
2024/02/22 02:27:06;;;;;;;0.82;0.82;;;11.10;99.90;;;;;;2085913;28;20048;-68
2024/02/22 02:28:07;;;;;;;1.00;0.70;;;11.10;99.90;;;;;;2085901;28;20040;-68
2024/02/22 02:29:07;;;;;;;1.80;0.80;;;11.10;99.90;;;;;;2085051;28;20520;-69
2024/02/22 02:30:08;;;;;;;2.10;0.70;;;11.10;99.90;;;;;;2085229;28;20147;-68
2024/02/22 02:31:09;;;;;;;0.50;0.50;;;11.10;99.90;;;;;;2084696;28;20032;-68
2024/02/22 02:32:09;;;;;;;0.60;0.60;;;11.10;99.90;;;;;;2084865;28;20037;-69
2024/02/22 02:33:10;;;;;;;0.60;0.60;;;11.10;99.90;;;;;;2083321;28;20022;-69
2024/02/22 02:34:10;;;;;;;0.73;0.73;;;11.10;99.90;;;;;;2084801;28;20395;-68
2024/02/22 02:35:11;;;;;;;0.80;0.80;;;11.10;99.90;;;;;;2084531;28;20538;-68
2024/02/22 02:36:12;;;;;;;0.88;0.75;;;11.10;99.90;;;;;;2087388;28;20040;-68
2024/02/22 02:37:12;;;;;;;0.68;0.68;;;11.10;99.90;;;;;;2082825;28;20053;-69
2024/02/22 02:38:14;;;;;;;1.00;0.55;;;11.10;99.90;;;;;;2085303;28;20016;-68
2024/02/22 02:39:14;;;;;;;0.60;0.60;;;11.10;99.90;;;;;;2083838;28;20045;-68
2024/02/22 02:40:15;;;;;;;2.40;0.65;;;11.20;99.90;;;;;;2085153;28;20531;-69
2024/02/22 02:41:15;;;;;;;2.25;0.60;;;11.10;99.90;;;;;;2085044;28;20029;-69
2024/02/22 02:42:17;;;;;;;1.52;0.75;;;11.20;99.90;;;;;;2085908;28;20136;-68
2024/02/22 02:43:17;;;;;;;0.50;0.50;;;11.10;99.90;;;;;;2083844;28;20090;-68
2024/02/22 02:44:18;;;;;;;0.70;0.60;;;11.20;99.90;;;;;;2085235;28;20078;-68
2024/02/22 02:45:18;;;;;;;1.17;0.60;;;11.20;99.90;;;;;;2084197;28;20390;-69
2024/02/22 02:46:19;;;;;;;1.23;0.80;;;11.20;99.90;;;;;;2086749;28;20025;-68
2024/02/22 02:47:19;;;;;;;1.50;0.88;;;11.20;99.90;;;;;;2087206;28;20021;-68
2024/02/22 02:48:20;;;;;;;0.80;0.80;;;11.20;99.90;;;;;;2085687;28;20079;-69
2024/02/22 02:49:21;;;;;;;0.90;0.90;;;11.20;99.90;;;;;;2085634;28;20029;-69
2024/02/22 02:50:21;;;;;;;1.13;0.80;;;11.20;99.90;;;;;;2082777;28;20033;-68
2024/02/22 02:51:22;;;;;;;1.33;0.80;;;11.20;99.90;;;;;;2084724;28;20421;-69
2024/02/22 02:52:22;;;;;;;1.05;0.70;;;11.20;99.90;;;;;;2086691;28;20033;-68
2024/02/22 02:53:23;;;;;;;1.20;0.80;;;11.20;99.90;;;;;;2085831;28;20044;-68
2024/02/22 02:54:23;;;;;;;4.55;0.70;;;11.20;99.90;;;;;;2083976;28;20057;-68
2024/02/22 02:55:25;;;;;;;1.20;0.80;;;11.20;99.90;;;;;;2086899;28;20067;-69
2024/02/22 02:56:25;;;;;;;2.00;0.70;;;11.20;99.90;;;;;;2085644;28;20037;-68
2024/02/22 02:57:26;;;;;;;1.05;0.77;;;11.20;99.90;;;;;;2084815;28;20772;-69
2024/02/22 02:58:26;;;;;;;2.15;0.60;;;11.20;99.90;;;;;;2086233;28;20166;-69
2024/02/22 02:59:27;;;;;;;0.85;0.85;;;11.20;99.90;;;;;;2085726;28;20071;-69
2024/02/22 03:00:27;;;;;;;0.90;0.52;;;11.20;99.90;;;;;;2087088;28;20035;-69
2024/02/22 03:01:28;;;;;;;0.60;0.60;;;11.20;99.90;;;;;;2084706;28;20029;-68
2024/02/22 03:02:28;;;;;;;1.77;0.75;;;11.20;99.90;;;;;;2085792;28;20145;-67
2024/02/22 03:03:31;;;;;;;1.58;0.60;;;11.20;99.90;;;;;;2084808;28;20042;-68
2024/02/22 03:04:32;;;;;;;1.85;0.80;;;11.20;99.90;;;;;;2085860;28;20036;-68
2024/02/22 03:05:32;;;;;;;1.58;0.70;;;11.20;99.90;;;;;;2084680;28;20079;-69
2024/02/22 03:06:33;;;;;;;0.70;0.70;;;11.20;99.90;;;;;;2085788;28;20025;-69
2024/02/22 03:07:34;;;;;;;0.60;0.60;;;11.30;99.90;;;;;;2083511;28;20101;-68
2024/02/22 03:08:34;;;;;;;0.60;0.60;;;11.20;99.90;;;;;;2085373;28;20029;-68
2024/02/22 03:09:35;;;;;;;0.60;0.50;;;11.20;99.90;;;;;;2086557;28;20033;-68
2024/02/22 03:10:36;;;;;;;0.95;0.70;;;11.30;99.90;;;;;;2085408;28;20025;-69
2024/02/22 03:11:37;;;;;;;0.90;0.80;;;11.20;99.90;;;;;;2086291;28;20025;-69
2024/02/22 03:12:37;;;;;;;0.75;0.55;;;11.30;99.90;;;;;;2085441;28;20630;-69
2024/02/22 03:13:38;;;;;;;0.85;0.63;;;11.30;99.90;;;;;;2083375;28;20465;-69
2024/02/22 03:14:38;;;;;;;1.00;0.60;;;11.30;99.90;;;;;;2084055;28;20063;-68
2024/02/22 03:15:39;;;;;;;1.52;1.30;;;11.30;99.90;;;;;;2085982;28;20040;-68
2024/02/22 03:16:39;;;;;;;0.75;0.75;;;11.30;99.90;;;;;;2085772;28;20058;-69
2024/02/22 03:17:40;;;;;;;2.05;0.73;;;11.30;99.90;;;;;;2087434;28;20051;-69
2024/02/22 03:18:41;;;;;;;0.60;0.60;;;11.30;99.90;;;;;;2088321;28;20078;-68
2024/02/22 03:19:41;;;;;;;0.40;0.40;;;11.30;99.90;;;;;;2087092;28;20045;-68
2024/02/22 03:20:42;;;;;;;0.63;0.50;;;11.30;99.90;;;;;;2083618;28;21009;-68
2024/02/22 03:21:42;;;;;;;1.48;0.50;;;11.30;99.90;;;;;;2086266;28;20112;-69
2024/02/22 03:22:43;;;;;;;0.85;0.73;;;11.30;99.90;;;;;;2085401;28;20048;-68
2024/02/22 03:23:43;;;;;;;0.60;0.60;;;11.30;99.90;;;;;;2084880;28;20470;-69
2024/02/22 03:24:44;;;;;;;1.73;0.68;;;11.30;99.90;;;;;;2084034;28;20404;-69
2024/02/22 03:25:45;;;;;;;1.98;0.77;;;11.30;99.90;;;;;;2086077;28;20026;-68
2024/02/22 03:26:46;;;;;;;0.52;0.52;;;11.30;99.90;;;;;;2084261;28;20414;-68
2024/02/22 03:27:49;;;;;;;0.43;0.43;;;11.30;99.90;;;;;;2085502;28;20021;-68
2024/02/22 03:28:51;;;;;;;0.50;0.50;;;11.30;99.90;;;;;;2086031;28;20384;-68
2024/02/22 03:29:52;;;;;;;0.50;0.50;;;11.30;99.90;;;;;;2083143;28;20028;-68
2024/02/22 03:30:52;;;;;;;1.42;0.50;;;11.30;99.90;;;;;;2085934;28;20067;-67
2024/02/22 03:31:53;;;;;;;0.55;0.55;;;11.30;99.90;;;;;;2084603;28;20359;-68
2024/02/22 03:32:56;;;;;;;1.27;0.60;;;11.30;99.90;;;;;;2084576;28;20055;-68
2024/02/22 03:33:57;;;;;;;0.50;0.50;;;11.30;99.90;;;;;;2084805;28;20025;-69
2024/02/22 03:35:00;;;;;;;0.60;0.60;;;11.30;99.90;;;;;;2084298;28;20081;-68
2024/02/22 03:36:01;;;;;;;1.13;0.57;;;11.30;99.90;;;;;;2086243;28;20152;-68
2024/02/22 03:37:02;;;;;;;0.75;0.75;;;11.30;99.90;;;;;;2082772;28;20025;-68
2024/02/22 03:38:03;;;;;;;0.63;0.63;;;11.30;99.90;;;;;;2085674;28;20051;-68
2024/02/22 03:39:05;;;;;;;0.63;0.60;;;11.30;99.90;;;;;;2084323;28;20031;-70
2024/02/22 03:40:06;;;;;;;0.52;0.52;;;11.40;99.90;;;;;;2084098;28;20035;-68
2024/02/22 03:41:07;;;;;;;0.80;0.68;;;11.40;99.90;;;;;;2083425;28;20793;-68
2024/02/22 03:42:08;;;;;;;0.95;0.60;;;11.40;99.90;;;;;;2085438;28;20028;-68
2024/02/22 03:43:09;;;;;;;1.52;0.65;;;11.40;99.90;;;;;;2087247;28;20029;-68
2024/02/22 03:44:10;;;;;;;0.50;0.50;;;11.40;99.90;;;;;;2088610;28;20036;-68
2024/02/22 03:45:10;;;;;;;0.95;0.55;;;11.40;99.90;;;;;;2083127;28;20021;-69
2024/02/22 03:46:11;;;;;;;1.05;0.75;;;11.40;99.90;;;;;;2086517;28;20108;-68
2024/02/22 03:47:12;;;;;;;0.88;0.77;;;11.40;99.90;;;;;;2084868;28;20063;-69
2024/02/22 03:48:12;;;;;;;0.85;0.60;;;11.40;99.90;;;;;;2086164;28;20033;-69
2024/02/22 03:49:13;;;;;;;1.77;0.60;;;11.40;99.90;;;;;;2083747;28;20481;-70
2024/02/22 03:50:13;;;;;;;1.05;0.80;;;11.40;99.90;;;;;;2083102;28;20041;-69
2024/02/22 03:51:14;;;;;;;0.70;0.70;;;11.40;99.90;;;;;;2083445;28;20060;-68
2024/02/22 03:52:14;;;;;;;0.80;0.80;;;11.40;99.90;;;;;;2085388;28;20025;-68
2024/02/22 03:53:15;;;;;;;2.13;0.90;;;11.40;99.90;;;;;;2082980;28;20509;-70
2024/02/22 03:54:16;;;;;;;0.68;0.68;;;11.50;99.90;;;;;;2084123;28;20049;-68
2024/02/22 03:55:17;;;;;;;0.70;0.70;;;11.40;99.90;;;;;;2086332;28;20268;-68
2024/02/22 03:56:17;;;;;;;1.17;0.80;;;11.40;99.90;;;;;;2082164;28;20028;-69
2024/02/22 03:57:18;;;;;;;0.77;0.70;;;11.50;99.90;;;;;;2086443;28;20021;-68
2024/02/22 03:58:20;;;;;;;0.70;0.70;;;11.40;99.90;;;;;;2085779;28;20411;-68
2024/02/22 03:59:20;;;;;;;0.90;0.90;;;11.40;99.90;;;;;;2086720;28;20477;-69
2024/02/22 04:00:21;;;;;;;1.80;0.88;;;11.40;99.90;;;;;;2084347;28;20385;-68
2024/02/22 04:01:21;;;;;;;1.15;0.88;;;11.40;99.90;;;;;;2084107;28;20029;-69
2024/02/22 04:02:22;;;;;;;1.10;0.95;;;11.40;99.90;;;;;;2085705;28;20025;-68
2024/02/22 04:03:22;;;;;;;1.40;1.30;;;11.40;99.90;;;;;;2086047;28;20029;-68
2024/02/22 04:04:23;;;;;;;2.22;1.30;;;11.40;99.90;;;;;;2084877;28;20032;-68
2024/02/22 04:05:24;;;;;;;0.80;0.80;;;11.50;99.90;;;;;;2084927;28;20017;-68
2024/02/22 04:06:24;;;;;;;0.70;0.70;;;11.40;99.90;;;;;;2092306;28;20055;-68
2024/02/22 04:07:25;;;;;;;2.60;1.00;;;11.50;99.90;;;;;;2090643;28;20443;-69
2024/02/22 04:08:26;;;;;;;1.05;0.77;;;11.50;99.90;;;;;;2083035;28;20025;-73
2024/02/22 04:09:26;;;;;;;0.85;0.70;;;11.50;99.90;;;;;;2083900;28;20111;-74
2024/02/22 04:10:28;;;;;;;1.35;0.88;;;11.50;99.90;;;;;;2085321;28;20020;-73
2024/02/22 04:11:29;;;;;;;0.85;0.80;;;11.50;99.90;;;;;;2083257;28;20116;-74
2024/02/22 04:12:30;;;;;;;0.70;0.60;;;11.50;99.90;;;;;;2086352;28;20021;-73
2024/02/22 04:13:30;;;;;;;1.10;0.88;;;11.50;99.90;;;;;;2083879;28;20052;-74
2024/02/22 04:14:31;;;;;;;1.55;0.80;;;11.50;99.90;;;;;;2083808;28;20041;-74
2024/02/22 04:15:31;;;;;;;0.70;0.70;;;11.50;99.90;;;;;;2083318;28;20025;-74
2024/02/22 04:16:32;;;;;;;1.27;1.13;;;11.50;99.90;;;;;;2083998;28;20041;-74
2024/02/22 04:17:32;;;;;;;0.90;0.80;;;11.50;99.90;;;;;;2084026;28;20122;-75
2024/02/22 04:18:33;;;;;;;1.60;0.88;;;11.50;99.90;;;;;;2084950;28;20075;-75
2024/02/22 04:19:33;;;;;;;0.88;0.88;;;11.50;99.90;;;;;;2084422;28;20047;-74
2024/02/22 04:20:34;;;;;;;1.52;0.80;;;11.50;99.90;;;;;;2085399;28;20427;-72
2024/02/22 04:21:40;;;;;;;0.65;0.65;;;11.50;99.90;;;;;;2085263;28;20126;-74
2024/02/22 04:22:49;;;;;;;0.82;0.80;;;11.50;99.90;;;;;;2081567;28;20375;-74
2024/02/22 04:23:49;;;;;;;0.73;0.73;;;11.50;99.90;;;;;;2087810;28;20037;-74
2024/02/22 04:24:50;;;;;;;0.70;0.70;;;11.50;99.90;;;;;;2087925;28;20017;-73
2024/02/22 04:25:50;;;;;;;1.00;0.90;;;11.50;99.90;;;;;;2082661;28;20973;-74
2024/02/22 04:26:51;;;;;;;1.17;1.08;;;11.50;99.90;;;;;;2084695;28;20075;-74
2024/02/22 04:27:52;;;;;;;1.42;1.00;;;11.50;99.90;;;;;;2083375;28;20100;-75
2024/02/22 04:28:52;;;;;;;1.35;0.82;;;11.50;99.90;;;;;;2084843;28;20053;-74
2024/02/22 04:29:53;;;;;;;2.17;1.00;;;11.50;99.90;;;;;;2083880;28;20028;-72
2024/02/22 04:30:53;;;;;;;0.95;0.93;;;11.50;99.90;;;;;;2083890;28;20080;-74
2024/02/22 04:31:54;;;;;;;0.80;0.80;;;11.50;99.90;;;;;;2083553;28;20024;-72
2024/02/22 04:32:54;;;;;;;0.95;0.95;;;11.50;99.90;;;;;;2083691;28;20393;-74
2024/02/22 04:33:55;;;;;;;1.00;1.00;;;11.50;99.90;;;;;;2085595;28;20033;-74
2024/02/22 04:34:55;;;;;;;1.20;1.00;;;11.50;99.90;;;;;;2083296;28;20063;-74
2024/02/22 04:35:56;;;;;;;1.20;1.10;;;11.50;99.90;;;;;;2084615;28;20033;-74
2024/02/22 04:36:57;;;;;;;1.20;1.20;;;11.50;99.90;;;;;;2084629;28;20365;-74
2024/02/22 04:37:57;;;;;;;1.15;1.05;;;11.50;99.90;;;;;;2084754;28;20029;-73
2024/02/22 04:38:58;;;;;;;1.13;1.02;;;11.50;99.90;;;;;;2083688;28;20041;-74
2024/02/22 04:39:58;;;;;;;3.35;1.50;;;11.50;99.90;;;;;;2084844;28;20060;-73
2024/02/22 04:40:59;;;;;;;2.55;1.23;;;11.50;99.90;;;;;;2082888;28;20029;-74
2024/02/22 04:42:00;;;;;;;1.42;1.27;;;11.50;99.90;;;;;;2083540;28;20497;-73
2024/02/22 04:43:00;;;;;;;0.95;0.95;;;11.60;99.90;;;;;;2085274;28;20025;-74
2024/02/22 04:44:02;;;;;;;1.95;1.20;;;11.50;99.90;;;;;;2083845;28;20044;-74
2024/02/22 04:45:04;;;;;;;1.20;1.10;;;11.50;99.90;;;;;;2083059;28;20017;-73
2024/02/22 04:46:04;;;;;;;1.40;1.30;;;11.50;99.90;;;;;;2084349;28;20127;-73
2024/02/22 04:47:05;;;;;;;2.78;1.10;;;11.50;99.90;;;;;;2081577;28;20079;-74
2024/02/22 04:48:06;;;;;;;1.02;1.00;;;11.50;99.90;;;;;;2083354;28;20041;-73
2024/02/22 04:49:09;;;;;;;1.27;1.17;;;11.50;99.90;;;;;;2084257;28;20382;-74
2024/02/22 04:50:10;;;;;;;1.30;1.20;;;11.50;99.90;;;;;;2084226;28;20536;-74
2024/02/22 04:51:11;;;;;;;1.60;1.50;;;11.50;99.90;;;;;;2085313;28;20094;-75
2024/02/22 04:52:11;;;;;;;1.35;1.25;;;11.60;99.90;;;;;;2085105;28;20151;-74
2024/02/22 04:53:12;;;;;;;1.40;1.30;;;11.60;99.90;;;;;;2084397;28;20037;-73
2024/02/22 04:54:12;;;;;;;1.13;1.13;;;11.50;99.90;;;;;;2086584;28;20025;-73
2024/02/22 04:55:13;;;;;;;1.10;1.10;;;11.60;99.90;;;;;;2085321;28;20434;-75
2024/02/22 04:56:13;;;;;;;1.25;1.15;;;11.60;99.90;;;;;;2083508;28;20017;-73
2024/02/22 04:57:14;;;;;;;1.30;1.20;;;11.60;99.90;;;;;;2084045;28;20364;-74
2024/02/22 04:58:14;;;;;;;1.23;1.13;;;11.60;99.90;;;;;;2085397;28;20146;-75
2024/02/22 04:59:15;;;;;;;1.00;1.00;;;11.60;99.90;;;;;;2083336;28;20049;-74
2024/02/22 05:00:16;;;;;;;1.25;1.15;;;11.60;99.90;;;;;;2083543;28;20021;-74
2024/02/22 05:01:17;;;;;;;1.15;1.10;;;11.60;99.90;;;;;;2082717;28;20025;-72
2024/02/22 05:02:19;;;;;;;0.80;0.80;;;11.60;99.90;;;;;;2085441;28;20029;-74
2024/02/22 05:03:20;;;;;;;0.95;0.95;;;11.60;99.90;;;;;;2084661;28;20025;-73
2024/02/22 05:04:20;;;;;;;0.90;0.90;;;11.60;99.90;;;;;;2084601;28;20029;-74
2024/02/22 05:05:21;;;;;;;2.47;1.08;;;11.60;99.90;;;;;;2081768;28;20021;-74
2024/02/22 05:06:22;;;;;;;0.90;0.90;;;11.60;99.90;;;;;;2086233;28;20033;-74
2024/02/22 05:07:22;;;;;;;1.08;1.08;;;11.60;99.90;;;;;;2083560;28;20097;-75
2024/02/22 05:08:23;;;;;;;1.00;1.00;;;11.60;99.90;;;;;;2085267;28;20022;-75
2024/02/22 05:09:24;;;;;;;2.67;1.00;;;11.60;99.90;;;;;;2083816;28;20025;-73
2024/02/22 05:10:24;;;;;;;1.02;0.95;;;11.60;99.90;;;;;;2086259;28;20519;-75
2024/02/22 05:11:25;;;;;;;0.90;0.90;;;11.60;99.90;;;;;;2089891;28;20029;-71
2024/02/22 05:12:25;;;;;;;1.30;1.20;;;11.60;99.90;;;;;;2092022;28;20921;-74
2024/02/22 05:13:26;;;;;;;0.93;0.93;;;11.60;99.90;;;;;;2085964;28;20100;-74
2024/02/22 05:14:26;;;;;;;1.50;1.30;;;11.60;99.90;;;;;;2084781;28;20116;-75
2024/02/22 05:15:27;;;;;;;1.02;1.02;;;11.60;99.90;;;;;;2084689;28;20501;-75
2024/02/22 05:16:27;;;;;;;1.35;1.23;;;11.60;99.90;;;;;;2086262;28;20051;-74
2024/02/22 05:17:28;;;;;;;1.85;1.30;;;11.60;99.90;;;;;;2085371;28;20044;-75
2024/02/22 05:18:29;;;;;;;1.42;1.40;;;11.70;99.90;;;;;;2085254;28;20108;-74